sensor_id;sensor_type;location;lat;lon;timestamp;P1;durP1;ratioP1;P2;durP2;ratioP2
3177;SDS011;38141;42.666;23.344;2023-06-05T00:01:59;16.73;;;11.70;;
3177;SDS011;38141;42.666;23.344;2023-06-05T00:04:25;15.47;;;10.67;;
3177;SDS011;38141;42.666;23.344;2023-06-05T00:06:52;15.10;;;11.40;;
3177;SDS011;38141;42.666;23.344;2023-06-05T00:09:21;14.93;;;10.80;;
3177;SDS011;38141;42.666;23.344;2023-06-05T00:11:48;13.37;;;10.93;;
3177;SDS011;38141;42.666;23.344;2023-06-05T00:14:15;14.20;;;11.07;;
3177;SDS011;38141;42.666;23.344;2023-06-05T00:16:42;18.00;;;11.83;;
3177;SDS011;38141;42.666;23.344;2023-06-05T00:19:08;18.47;;;11.67;;
3177;SDS011;38141;42.666;23.344;2023-06-05T00:21:35;18.90;;;12.80;;
3177;SDS011;38141;42.666;23.344;2023-06-05T00:24:02;27.47;;;12.80;;
3177;SDS011;38141;42.666;23.344;2023-06-05T00:26:30;19.07;;;11.13;;
3177;SDS011;38141;42.666;23.344;2023-06-05T00:28:57;18.73;;;11.73;;
3177;SDS011;38141;42.666;23.344;2023-06-05T00:31:24;18.10;;;12.93;;
3177;SDS011;38141;42.666;23.344;2023-06-05T00:33:51;16.47;;;11.43;;
3177;SDS011;38141;42.666;23.344;2023-06-05T00:36:18;18.33;;;13.17;;
3177;SDS011;38141;42.666;23.344;2023-06-05T00:38:47;18.43;;;14.13;;
3177;SDS011;38141;42.666;23.344;2023-06-05T00:41:15;29.33;;;19.57;;
3177;SDS011;38141;42.666;23.344;2023-06-05T00:43:43;54.43;;;30.80;;
3177;SDS011;38141;42.666;23.344;2023-06-05T00:46:10;22.73;;;15.63;;
3177;SDS011;38141;42.666;23.344;2023-06-05T00:48:37;21.93;;;14.67;;
3177;SDS011;38141;42.666;23.344;2023-06-05T00:51:07;17.00;;;12.80;;
3177;SDS011;38141;42.666;23.344;2023-06-05T00:53:35;16.43;;;12.43;;
3177;SDS011;38141;42.666;23.344;2023-06-05T00:56:03;17.53;;;11.97;;
3177;SDS011;38141;42.666;23.344;2023-06-05T00:58:31;15.33;;;11.20;;
3177;SDS011;38141;42.666;23.344;2023-06-05T01:00:59;16.07;;;11.93;;
3177;SDS011;38141;42.666;23.344;2023-06-05T01:03:29;15.90;;;11.97;;
3177;SDS011;38141;42.666;23.344;2023-06-05T01:05:58;20.60;;;12.77;;
3177;SDS011;38141;42.666;23.344;2023-06-05T01:08:28;14.77;;;11.70;;
3177;SDS011;38141;42.666;23.344;2023-06-05T01:11:03;18.80;;;12.80;;
3177;SDS011;38141;42.666;23.344;2023-06-05T01:13:36;15.97;;;12.17;;
3177;SDS011;38141;42.666;23.344;2023-06-05T01:16:10;17.80;;;12.10;;
3177;SDS011;38141;42.666;23.344;2023-06-05T01:18:37;17.93;;;12.47;;
3177;SDS011;38141;42.666;23.344;2023-06-05T01:21:10;14.93;;;11.30;;
3177;SDS011;38141;42.666;23.344;2023-06-05T01:23:42;17.23;;;11.83;;
3177;SDS011;38141;42.666;23.344;2023-06-05T01:26:10;16.67;;;11.90;;
3177;SDS011;38141;42.666;23.344;2023-06-05T01:28:43;18.53;;;12.63;;
3177;SDS011;38141;42.666;23.344;2023-06-05T01:31:14;14.80;;;11.20;;
3177;SDS011;38141;42.666;23.344;2023-06-05T01:33:46;14.20;;;11.13;;
3177;SDS011;38141;42.666;23.344;2023-06-05T01:36:17;14.90;;;11.93;;
3177;SDS011;38141;42.666;23.344;2023-06-05T01:38:46;15.23;;;11.23;;
3177;SDS011;38141;42.666;23.344;2023-06-05T01:41:16;18.63;;;11.37;;
3177;SDS011;38141;42.666;23.344;2023-06-05T01:43:44;15.40;;;12.30;;
3177;SDS011;38141;42.666;23.344;2023-06-05T01:46:12;13.03;;;10.97;;
3177;SDS011;38141;42.666;23.344;2023-06-05T01:48:40;17.17;;;11.67;;
3177;SDS011;38141;42.666;23.344;2023-06-05T01:51:08;20.83;;;13.60;;
3177;SDS011;38141;42.666;23.344;2023-06-05T01:53:34;14.73;;;11.53;;
3177;SDS011;38141;42.666;23.344;2023-06-05T01:56:03;15.20;;;11.70;;
3177;SDS011;38141;42.666;23.344;2023-06-05T01:58:33;18.23;;;11.97;;
3177;SDS011;38141;42.666;23.344;2023-06-05T02:01:00;18.70;;;11.33;;
3177;SDS011;38141;42.666;23.344;2023-06-05T02:03:27;15.67;;;11.60;;
3177;SDS011;38141;42.666;23.344;2023-06-05T02:05:54;15.20;;;12.30;;
3177;SDS011;38141;42.666;23.344;2023-06-05T02:08:21;15.10;;;11.93;;
3177;SDS011;38141;42.666;23.344;2023-06-05T02:10:48;20.00;;;11.97;;
3177;SDS011;38141;42.666;23.344;2023-06-05T02:13:16;15.53;;;10.97;;
3177;SDS011;38141;42.666;23.344;2023-06-05T02:15:44;16.10;;;11.77;;
3177;SDS011;38141;42.666;23.344;2023-06-05T02:18:11;14.47;;;11.13;;
3177;SDS011;38141;42.666;23.344;2023-06-05T02:20:40;16.73;;;10.67;;
3177;SDS011;38141;42.666;23.344;2023-06-05T02:23:07;18.03;;;12.13;;
3177;SDS011;38141;42.666;23.344;2023-06-05T02:25:35;13.40;;;10.90;;
3177;SDS011;38141;42.666;23.344;2023-06-05T02:28:02;15.13;;;11.43;;
3177;SDS011;38141;42.666;23.344;2023-06-05T02:30:30;14.07;;;10.77;;
3177;SDS011;38141;42.666;23.344;2023-06-05T02:32:58;21.67;;;12.60;;
3177;SDS011;38141;42.666;23.344;2023-06-05T02:35:26;14.67;;;11.10;;
3177;SDS011;38141;42.666;23.344;2023-06-05T02:37:54;17.10;;;11.00;;
3177;SDS011;38141;42.666;23.344;2023-06-05T02:40:21;15.63;;;11.03;;
3177;SDS011;38141;42.666;23.344;2023-06-05T02:42:48;14.03;;;10.93;;
3177;SDS011;38141;42.666;23.344;2023-06-05T02:45:15;19.80;;;12.27;;
3177;SDS011;38141;42.666;23.344;2023-06-05T02:47:43;18.57;;;11.80;;
3177;SDS011;38141;42.666;23.344;2023-06-05T02:50:10;13.67;;;11.20;;
3177;SDS011;38141;42.666;23.344;2023-06-05T02:52:38;17.97;;;11.60;;
3177;SDS011;38141;42.666;23.344;2023-06-05T02:55:05;16.97;;;12.27;;
3177;SDS011;38141;42.666;23.344;2023-06-05T02:57:32;19.23;;;13.20;;
3177;SDS011;38141;42.666;23.344;2023-06-05T03:00:07;19.37;;;12.10;;
3177;SDS011;38141;42.666;23.344;2023-06-05T03:02:34;16.27;;;12.10;;
3177;SDS011;38141;42.666;23.344;2023-06-05T03:05:04;15.53;;;11.70;;
3177;SDS011;38141;42.666;23.344;2023-06-05T03:07:32;16.10;;;12.50;;
3177;SDS011;38141;42.666;23.344;2023-06-05T03:09:59;19.83;;;13.03;;
3177;SDS011;38141;42.666;23.344;2023-06-05T03:12:26;18.27;;;12.90;;
3177;SDS011;38141;42.666;23.344;2023-06-05T03:14:53;17.57;;;11.97;;
3177;SDS011;38141;42.666;23.344;2023-06-05T03:17:20;18.53;;;13.13;;
3177;SDS011;38141;42.666;23.344;2023-06-05T03:19:48;15.20;;;11.10;;
3177;SDS011;38141;42.666;23.344;2023-06-05T03:22:17;15.73;;;11.47;;
3177;SDS011;38141;42.666;23.344;2023-06-05T03:24:44;15.60;;;12.00;;
3177;SDS011;38141;42.666;23.344;2023-06-05T03:27:11;14.17;;;11.37;;
3177;SDS011;38141;42.666;23.344;2023-06-05T03:29:39;22.63;;;12.60;;
3177;SDS011;38141;42.666;23.344;2023-06-05T03:32:06;17.70;;;11.93;;
3177;SDS011;38141;42.666;23.344;2023-06-05T03:34:33;21.33;;;12.90;;
3177;SDS011;38141;42.666;23.344;2023-06-05T03:37:02;14.60;;;11.60;;
3177;SDS011;38141;42.666;23.344;2023-06-05T03:39:31;13.27;;;11.03;;
3177;SDS011;38141;42.666;23.344;2023-06-05T03:41:59;17.00;;;11.47;;
3177;SDS011;38141;42.666;23.344;2023-06-05T03:44:27;22.03;;;14.27;;
3177;SDS011;38141;42.666;23.344;2023-06-05T03:46:54;18.10;;;12.67;;
3177;SDS011;38141;42.666;23.344;2023-06-05T03:49:21;17.00;;;10.70;;
3177;SDS011;38141;42.666;23.344;2023-06-05T03:51:47;25.13;;;13.90;;
3177;SDS011;38141;42.666;23.344;2023-06-05T03:54:14;16.03;;;12.40;;
3177;SDS011;38141;42.666;23.344;2023-06-05T03:56:45;19.70;;;12.90;;
3177;SDS011;38141;42.666;23.344;2023-06-05T03:59:15;16.87;;;11.30;;
3177;SDS011;38141;42.666;23.344;2023-06-05T04:01:53;17.50;;;11.43;;
3177;SDS011;38141;42.666;23.344;2023-06-05T04:04:21;18.60;;;12.43;;
3177;SDS011;38141;42.666;23.344;2023-06-05T04:06:48;19.83;;;12.77;;
3177;SDS011;38141;42.666;23.344;2023-06-05T04:09:15;22.30;;;12.93;;
3177;SDS011;38141;42.666;23.344;2023-06-05T04:11:43;23.10;;;13.87;;
3177;SDS011;38141;42.666;23.344;2023-06-05T04:14:13;20.50;;;13.23;;
3177;SDS011;38141;42.666;23.344;2023-06-05T04:16:40;20.27;;;13.40;;
3177;SDS011;38141;42.666;23.344;2023-06-05T04:19:09;19.63;;;13.93;;
3177;SDS011;38141;42.666;23.344;2023-06-05T04:21:37;22.33;;;14.63;;
3177;SDS011;38141;42.666;23.344;2023-06-05T04:24:04;23.07;;;15.40;;
3177;SDS011;38141;42.666;23.344;2023-06-05T04:26:35;17.50;;;13.30;;
3177;SDS011;38141;42.666;23.344;2023-06-05T04:29:03;20.50;;;12.87;;
3177;SDS011;38141;42.666;23.344;2023-06-05T04:31:35;19.90;;;13.27;;
3177;SDS011;38141;42.666;23.344;2023-06-05T04:34:05;22.73;;;15.60;;
3177;SDS011;38141;42.666;23.344;2023-06-05T04:36:34;21.07;;;14.37;;
3177;SDS011;38141;42.666;23.344;2023-06-05T04:39:01;18.83;;;13.93;;
3177;SDS011;38141;42.666;23.344;2023-06-05T04:41:32;20.00;;;14.40;;
3177;SDS011;38141;42.666;23.344;2023-06-05T04:44:00;28.10;;;14.83;;
3177;SDS011;38141;42.666;23.344;2023-06-05T04:46:28;23.10;;;14.90;;
3177;SDS011;38141;42.666;23.344;2023-06-05T04:48:55;22.00;;;13.37;;
3177;SDS011;38141;42.666;23.344;2023-06-05T04:51:22;45.40;;;30.27;;
3177;SDS011;38141;42.666;23.344;2023-06-05T04:53:50;21.40;;;14.93;;
3177;SDS011;38141;42.666;23.344;2023-06-05T04:56:18;19.83;;;13.90;;
3177;SDS011;38141;42.666;23.344;2023-06-05T04:58:46;25.27;;;14.97;;
3177;SDS011;38141;42.666;23.344;2023-06-05T05:01:15;20.43;;;14.60;;
3177;SDS011;38141;42.666;23.344;2023-06-05T05:03:44;19.80;;;14.90;;
3177;SDS011;38141;42.666;23.344;2023-06-05T05:06:13;24.83;;;15.00;;
3177;SDS011;38141;42.666;23.344;2023-06-05T05:08:41;25.87;;;15.50;;
3177;SDS011;38141;42.666;23.344;2023-06-05T05:11:10;21.20;;;15.20;;
3177;SDS011;38141;42.666;23.344;2023-06-05T05:13:37;23.13;;;14.87;;
3177;SDS011;38141;42.666;23.344;2023-06-05T05:16:04;21.53;;;14.90;;
3177;SDS011;38141;42.666;23.344;2023-06-05T05:18:31;20.70;;;13.60;;
3177;SDS011;38141;42.666;23.344;2023-06-05T05:20:59;18.37;;;12.87;;
3177;SDS011;38141;42.666;23.344;2023-06-05T05:23:27;18.00;;;12.93;;
3177;SDS011;38141;42.666;23.344;2023-06-05T05:25:54;22.10;;;13.07;;
3177;SDS011;38141;42.666;23.344;2023-06-05T05:28:21;18.40;;;12.60;;
3177;SDS011;38141;42.666;23.344;2023-06-05T05:30:47;19.80;;;11.83;;
3177;SDS011;38141;42.666;23.344;2023-06-05T05:33:14;17.47;;;11.93;;
3177;SDS011;38141;42.666;23.344;2023-06-05T05:35:41;15.75;;;11.85;;
3177;SDS011;38141;42.666;23.344;2023-06-05T05:38:09;16.58;;;11.45;;
3177;SDS011;38141;42.666;23.344;2023-06-05T05:40:36;14.70;;;11.32;;
3177;SDS011;38141;42.666;23.344;2023-06-05T05:43:03;14.98;;;11.45;;
3177;SDS011;38141;42.666;23.344;2023-06-05T05:45:30;13.25;;;10.60;;
3177;SDS011;38141;42.666;23.344;2023-06-05T05:47:56;18.05;;;11.75;;
3177;SDS011;38141;42.666;23.344;2023-06-05T05:50:23;13.65;;;10.93;;
3177;SDS011;38141;42.666;23.344;2023-06-05T05:52:57;12.30;;;10.45;;
3177;SDS011;38141;42.666;23.344;2023-06-05T05:55:27;13.48;;;11.43;;
3177;SDS011;38141;42.666;23.344;2023-06-05T05:57:54;14.40;;;10.52;;
3177;SDS011;38141;42.666;23.344;2023-06-05T06:00:21;13.88;;;11.15;;
3177;SDS011;38141;42.666;23.344;2023-06-05T06:02:49;15.45;;;11.98;;
3177;SDS011;38141;42.666;23.344;2023-06-05T06:05:16;19.60;;;11.88;;
3177;SDS011;38141;42.666;23.344;2023-06-05T06:07:43;15.60;;;11.60;;
3177;SDS011;38141;42.666;23.344;2023-06-05T06:10:12;17.55;;;11.52;;
3177;SDS011;38141;42.666;23.344;2023-06-05T06:12:41;17.95;;;11.07;;
3177;SDS011;38141;42.666;23.344;2023-06-05T06:15:08;16.08;;;11.57;;
3177;SDS011;38141;42.666;23.344;2023-06-05T06:17:35;15.48;;;11.45;;
3177;SDS011;38141;42.666;23.344;2023-06-05T06:20:02;15.00;;;10.35;;
3177;SDS011;38141;42.666;23.344;2023-06-05T06:22:31;13.57;;;10.05;;
3177;SDS011;38141;42.666;23.344;2023-06-05T06:24:58;18.02;;;11.38;;
3177;SDS011;38141;42.666;23.344;2023-06-05T06:27:25;15.43;;;11.20;;
3177;SDS011;38141;42.666;23.344;2023-06-05T06:29:53;14.35;;;10.63;;
3177;SDS011;38141;42.666;23.344;2023-06-05T06:32:20;14.55;;;10.63;;
3177;SDS011;38141;42.666;23.344;2023-06-05T06:34:48;13.73;;;10.85;;
3177;SDS011;38141;42.666;23.344;2023-06-05T06:37:16;18.38;;;12.68;;
3177;SDS011;38141;42.666;23.344;2023-06-05T06:39:45;17.33;;;12.23;;
3177;SDS011;38141;42.666;23.344;2023-06-05T06:42:12;12.68;;;11.27;;
3177;SDS011;38141;42.666;23.344;2023-06-05T06:44:39;16.02;;;11.90;;
3177;SDS011;38141;42.666;23.344;2023-06-05T06:47:07;15.27;;;11.73;;
3177;SDS011;38141;42.666;23.344;2023-06-05T06:49:34;19.50;;;12.63;;
3177;SDS011;38141;42.666;23.344;2023-06-05T06:52:01;16.45;;;12.70;;
3177;SDS011;38141;42.666;23.344;2023-06-05T06:54:28;18.33;;;12.75;;
3177;SDS011;38141;42.666;23.344;2023-06-05T06:56:55;18.52;;;13.68;;
3177;SDS011;38141;42.666;23.344;2023-06-05T06:59:23;16.65;;;12.80;;
3177;SDS011;38141;42.666;23.344;2023-06-05T07:04:37;16.52;;;12.77;;
3177;SDS011;38141;42.666;23.344;2023-06-05T07:07:07;17.95;;;13.68;;
3177;SDS011;38141;42.666;23.344;2023-06-05T07:09:35;16.90;;;12.60;;
3177;SDS011;38141;42.666;23.344;2023-06-05T07:12:02;21.27;;;15.50;;
3177;SDS011;38141;42.666;23.344;2023-06-05T07:14:31;20.38;;;14.02;;
3177;SDS011;38141;42.666;23.344;2023-06-05T07:16:59;19.63;;;13.82;;
3177;SDS011;38141;42.666;23.344;2023-06-05T07:19:27;19.98;;;14.18;;
3177;SDS011;38141;42.666;23.344;2023-06-05T07:21:55;19.48;;;13.45;;
3177;SDS011;38141;42.666;23.344;2023-06-05T07:24:22;19.02;;;13.10;;
3177;SDS011;38141;42.666;23.344;2023-06-05T07:26:50;19.20;;;13.80;;
3177;SDS011;38141;42.666;23.344;2023-06-05T07:29:18;21.67;;;14.18;;
3177;SDS011;38141;42.666;23.344;2023-06-05T07:31:46;20.25;;;13.60;;
3177;SDS011;38141;42.666;23.344;2023-06-05T07:34:13;18.50;;;13.18;;
3177;SDS011;38141;42.666;23.344;2023-06-05T07:36:41;18.60;;;13.30;;
3177;SDS011;38141;42.666;23.344;2023-06-05T07:39:10;19.08;;;13.63;;
3177;SDS011;38141;42.666;23.344;2023-06-05T07:41:37;19.55;;;13.10;;
3177;SDS011;38141;42.666;23.344;2023-06-05T07:44:05;18.45;;;12.82;;
3177;SDS011;38141;42.666;23.344;2023-06-05T07:46:32;15.88;;;12.57;;
3177;SDS011;38141;42.666;23.344;2023-06-05T07:48:59;19.20;;;13.40;;
3177;SDS011;38141;42.666;23.344;2023-06-05T07:51:25;17.52;;;13.00;;
3177;SDS011;38141;42.666;23.344;2023-06-05T07:53:54;20.92;;;14.40;;
3177;SDS011;38141;42.666;23.344;2023-06-05T07:56:21;16.35;;;11.90;;
3177;SDS011;38141;42.666;23.344;2023-06-05T07:58:50;17.13;;;12.85;;
3177;SDS011;38141;42.666;23.344;2023-06-05T08:01:17;18.00;;;12.43;;
3177;SDS011;38141;42.666;23.344;2023-06-05T08:03:45;17.70;;;11.95;;
3177;SDS011;38141;42.666;23.344;2023-06-05T08:06:13;17.05;;;13.05;;
3177;SDS011;38141;42.666;23.344;2023-06-05T08:08:40;19.55;;;12.85;;
3177;SDS011;38141;42.666;23.344;2023-06-05T08:11:09;17.33;;;13.57;;
3177;SDS011;38141;42.666;23.344;2023-06-05T08:13:36;17.02;;;12.30;;
3177;SDS011;38141;42.666;23.344;2023-06-05T08:16:04;16.20;;;11.65;;
3177;SDS011;38141;42.666;23.344;2023-06-05T08:18:31;15.30;;;11.30;;
3177;SDS011;38141;42.666;23.344;2023-06-05T08:20:58;14.23;;;11.30;;
3177;SDS011;38141;42.666;23.344;2023-06-05T08:23:25;14.68;;;11.05;;
3177;SDS011;38141;42.666;23.344;2023-06-05T08:25:53;13.88;;;11.30;;
3177;SDS011;38141;42.666;23.344;2023-06-05T08:28:21;17.23;;;11.57;;
3177;SDS011;38141;42.666;23.344;2023-06-05T08:30:48;16.02;;;11.90;;
3177;SDS011;38141;42.666;23.344;2023-06-05T08:33:17;19.08;;;12.70;;
3177;SDS011;38141;42.666;23.344;2023-06-05T08:35:45;16.58;;;11.90;;
3177;SDS011;38141;42.666;23.344;2023-06-05T08:38:11;15.02;;;11.32;;
3177;SDS011;38141;42.666;23.344;2023-06-05T08:40:39;15.82;;;11.82;;
3177;SDS011;38141;42.666;23.344;2023-06-05T08:43:06;16.58;;;11.05;;
3177;SDS011;38141;42.666;23.344;2023-06-05T08:45:34;17.85;;;10.95;;
3177;SDS011;38141;42.666;23.344;2023-06-05T08:48:01;15.63;;;11.35;;
3177;SDS011;38141;42.666;23.344;2023-06-05T08:50:28;15.50;;;11.40;;
3177;SDS011;38141;42.666;23.344;2023-06-05T08:52:56;15.23;;;11.10;;
3177;SDS011;38141;42.666;23.344;2023-06-05T08:55:25;16.83;;;12.02;;
3177;SDS011;38141;42.666;23.344;2023-06-05T08:57:53;16.52;;;11.38;;
3177;SDS011;38141;42.666;23.344;2023-06-05T09:00:20;13.60;;;10.25;;
3177;SDS011;38141;42.666;23.344;2023-06-05T09:02:49;16.77;;;10.65;;
3177;SDS011;38141;42.666;23.344;2023-06-05T09:05:16;18.00;;;11.15;;
3177;SDS011;38141;42.666;23.344;2023-06-05T09:07:43;13.68;;;10.85;;
3177;SDS011;38141;42.666;23.344;2023-06-05T09:10:23;17.35;;;10.27;;
3177;SDS011;38141;42.666;23.344;2023-06-05T09:12:54;14.38;;;11.20;;
3177;SDS011;38141;42.666;23.344;2023-06-05T09:15:23;12.23;;;9.93;;
3177;SDS011;38141;42.666;23.344;2023-06-05T09:18:08;14.77;;;10.57;;
3177;SDS011;38141;42.666;23.344;2023-06-05T09:20:36;16.00;;;11.02;;
3177;SDS011;38141;42.666;23.344;2023-06-05T09:23:05;16.38;;;11.18;;
3177;SDS011;38141;42.666;23.344;2023-06-05T09:25:49;13.32;;;10.02;;
3177;SDS011;38141;42.666;23.344;2023-06-05T09:28:17;13.52;;;10.05;;
3177;SDS011;38141;42.666;23.344;2023-06-05T09:30:54;13.75;;;9.73;;
3177;SDS011;38141;42.666;23.344;2023-06-05T09:33:24;14.55;;;10.68;;
3177;SDS011;38141;42.666;23.344;2023-06-05T09:36:02;16.38;;;10.82;;
3177;SDS011;38141;42.666;23.344;2023-06-05T09:38:30;11.70;;;9.07;;
3177;SDS011;38141;42.666;23.344;2023-06-05T09:41:03;12.48;;;9.32;;
3177;SDS011;38141;42.666;23.344;2023-06-05T09:43:31;12.40;;;9.73;;
3177;SDS011;38141;42.666;23.344;2023-06-05T09:45:59;14.68;;;9.82;;
3177;SDS011;38141;42.666;23.344;2023-06-05T09:48:34;12.48;;;9.55;;
3177;SDS011;38141;42.666;23.344;2023-06-05T09:51:11;11.25;;;8.55;;
3177;SDS011;38141;42.666;23.344;2023-06-05T09:53:41;12.38;;;8.98;;
3177;SDS011;38141;42.666;23.344;2023-06-05T09:56:09;12.02;;;9.70;;
3177;SDS011;38141;42.666;23.344;2023-06-05T09:58:38;12.27;;;9.00;;
3177;SDS011;38141;42.666;23.344;2023-06-05T10:01:09;14.33;;;9.60;;
3177;SDS011;38141;42.666;23.344;2023-06-05T10:03:40;14.37;;;10.13;;
3177;SDS011;38141;42.666;23.344;2023-06-05T10:06:10;14.90;;;10.20;;
3177;SDS011;38141;42.666;23.344;2023-06-05T10:08:38;14.73;;;10.63;;
3177;SDS011;38141;42.666;23.344;2023-06-05T10:11:05;13.67;;;10.07;;
3177;SDS011;38141;42.666;23.344;2023-06-05T10:13:34;18.83;;;10.63;;
3177;SDS011;38141;42.666;23.344;2023-06-05T10:16:01;16.33;;;10.35;;
3177;SDS011;38141;42.666;23.344;2023-06-05T10:18:29;14.43;;;9.88;;
3177;SDS011;38141;42.666;23.344;2023-06-05T10:20:59;13.85;;;10.80;;
3177;SDS011;38141;42.666;23.344;2023-06-05T10:23:26;13.98;;;9.85;;
3177;SDS011;38141;42.666;23.344;2023-06-05T10:25:54;14.07;;;10.27;;
3177;SDS011;38141;42.666;23.344;2023-06-05T10:28:29;14.85;;;9.82;;
3177;SDS011;38141;42.666;23.344;2023-06-05T10:31:12;14.13;;;10.07;;
3177;SDS011;38141;42.666;23.344;2023-06-05T10:34:02;13.27;;;9.50;;
3177;SDS011;38141;42.666;23.344;2023-06-05T10:36:49;13.27;;;9.60;;
3177;SDS011;38141;42.666;23.344;2023-06-05T10:39:28;13.30;;;9.60;;
3177;SDS011;38141;42.666;23.344;2023-06-05T10:41:58;14.67;;;9.83;;
3177;SDS011;38141;42.666;23.344;2023-06-05T10:44:41;15.30;;;10.50;;
3177;SDS011;38141;42.666;23.344;2023-06-05T10:50:25;13.90;;;10.27;;
3177;SDS011;38141;42.666;23.344;2023-06-05T10:52:58;15.20;;;10.63;;
3177;SDS011;38141;42.666;23.344;2023-06-05T10:55:27;20.37;;;11.87;;
3177;SDS011;38141;42.666;23.344;2023-06-05T10:58:09;21.35;;;13.43;;
3177;SDS011;38141;42.666;23.344;2023-06-05T11:03:53;17.02;;;11.80;;
3177;SDS011;38141;42.666;23.344;2023-06-05T11:06:22;12.27;;;10.07;;
3177;SDS011;38141;42.666;23.344;2023-06-05T11:14:23;12.15;;;9.60;;
3177;SDS011;38141;42.666;23.344;2023-06-05T11:16:50;9.70;;;8.40;;
3177;SDS011;38141;42.666;23.344;2023-06-05T11:19:35;12.18;;;9.00;;
3177;SDS011;38141;42.666;23.344;2023-06-05T11:22:04;10.45;;;8.35;;
3177;SDS011;38141;42.666;23.344;2023-06-05T11:24:36;9.68;;;7.80;;
3177;SDS011;38141;42.666;23.344;2023-06-05T11:27:04;15.93;;;8.73;;
3177;SDS011;38141;42.666;23.344;2023-06-05T11:29:34;11.98;;;9.00;;
3177;SDS011;38141;42.666;23.344;2023-06-05T11:32:10;11.02;;;8.50;;
3177;SDS011;38141;42.666;23.344;2023-06-05T11:34:37;11.18;;;8.35;;
3177;SDS011;38141;42.666;23.344;2023-06-05T11:39:54;9.05;;;8.02;;
3177;SDS011;38141;42.666;23.344;2023-06-05T11:42:22;11.60;;;8.80;;
3177;SDS011;38141;42.666;23.344;2023-06-05T11:44:49;12.05;;;8.88;;
3177;SDS011;38141;42.666;23.344;2023-06-05T11:47:25;11.80;;;8.00;;
3177;SDS011;38141;42.666;23.344;2023-06-05T11:49:53;10.10;;;8.68;;
3177;SDS011;38141;42.666;23.344;2023-06-05T11:52:21;13.23;;;8.30;;
3177;SDS011;38141;42.666;23.344;2023-06-05T11:54:49;9.88;;;8.50;;
3177;SDS011;38141;42.666;23.344;2023-06-05T11:57:39;11.23;;;8.52;;
3177;SDS011;38141;42.666;23.344;2023-06-05T12:00:07;11.77;;;8.77;;
3177;SDS011;38141;42.666;23.344;2023-06-05T12:02:36;10.38;;;9.07;;
3177;SDS011;38141;42.666;23.344;2023-06-05T12:05:04;11.80;;;8.15;;
3177;SDS011;38141;42.666;23.344;2023-06-05T12:07:32;9.40;;;7.80;;
3177;SDS011;38141;42.666;23.344;2023-06-05T12:10:02;10.07;;;7.50;;
3177;SDS011;38141;42.666;23.344;2023-06-05T12:12:29;12.32;;;7.97;;
3177;SDS011;38141;42.666;23.344;2023-06-05T12:14:57;10.65;;;7.43;;
3177;SDS011;38141;42.666;23.344;2023-06-05T12:17:24;11.68;;;8.05;;
3177;SDS011;38141;42.666;23.344;2023-06-05T12:19:53;14.18;;;8.30;;
3177;SDS011;38141;42.666;23.344;2023-06-05T12:22:21;12.00;;;7.78;;
3177;SDS011;38141;42.666;23.344;2023-06-05T12:24:48;9.90;;;6.88;;
3177;SDS011;38141;42.666;23.344;2023-06-05T12:27:16;8.18;;;7.30;;
3177;SDS011;38141;42.666;23.344;2023-06-05T12:29:52;10.15;;;7.90;;
3177;SDS011;38141;42.666;23.344;2023-06-05T12:32:21;11.23;;;8.40;;
3177;SDS011;38141;42.666;23.344;2023-06-05T12:34:49;11.93;;;7.40;;
3177;SDS011;38141;42.666;23.344;2023-06-05T12:37:23;9.63;;;7.30;;
3177;SDS011;38141;42.666;23.344;2023-06-05T12:39:53;7.88;;;7.00;;
3177;SDS011;38141;42.666;23.344;2023-06-05T12:42:19;7.78;;;6.85;;
3177;SDS011;38141;42.666;23.344;2023-06-05T12:44:46;8.48;;;6.63;;
3177;SDS011;38141;42.666;23.344;2023-06-05T12:47:13;12.45;;;7.28;;
3177;SDS011;38141;42.666;23.344;2023-06-05T12:49:41;8.73;;;6.68;;
3177;SDS011;38141;42.666;23.344;2023-06-05T12:52:11;9.27;;;7.25;;
3177;SDS011;38141;42.666;23.344;2023-06-05T12:54:39;10.50;;;7.95;;
3177;SDS011;38141;42.666;23.344;2023-06-05T12:57:06;10.77;;;7.68;;
3177;SDS011;38141;42.666;23.344;2023-06-05T12:59:33;8.02;;;6.70;;
3177;SDS011;38141;42.666;23.344;2023-06-05T13:02:00;7.32;;;6.38;;
3177;SDS011;38141;42.666;23.344;2023-06-05T13:04:43;8.45;;;6.43;;
3177;SDS011;38141;42.666;23.344;2023-06-05T13:07:10;7.20;;;6.30;;
3177;SDS011;38141;42.666;23.344;2023-06-05T13:09:37;7.63;;;6.70;;
3177;SDS011;38141;42.666;23.344;2023-06-05T13:12:05;9.40;;;7.07;;
3177;SDS011;38141;42.666;23.344;2023-06-05T13:14:31;7.13;;;6.00;;
3177;SDS011;38141;42.666;23.344;2023-06-05T13:17:12;8.65;;;6.78;;
3177;SDS011;38141;42.666;23.344;2023-06-05T13:19:39;7.03;;;6.40;;
3177;SDS011;38141;42.666;23.344;2023-06-05T13:22:08;7.95;;;6.10;;
3177;SDS011;38141;42.666;23.344;2023-06-05T13:24:35;8.55;;;6.60;;
3177;SDS011;38141;42.666;23.344;2023-06-05T13:27:02;7.70;;;6.55;;
3177;SDS011;38141;42.666;23.344;2023-06-05T13:29:29;7.00;;;6.30;;
3177;SDS011;38141;42.666;23.344;2023-06-05T13:31:56;8.38;;;6.63;;
3177;SDS011;38141;42.666;23.344;2023-06-05T13:34:22;7.78;;;6.32;;
3177;SDS011;38141;42.666;23.344;2023-06-05T13:36:49;7.55;;;6.60;;
3177;SDS011;38141;42.666;23.344;2023-06-05T13:39:18;7.32;;;6.63;;
3177;SDS011;38141;42.666;23.344;2023-06-05T13:41:44;9.82;;;7.68;;
3177;SDS011;38141;42.666;23.344;2023-06-05T13:44:11;9.95;;;6.90;;
3177;SDS011;38141;42.666;23.344;2023-06-05T13:46:39;7.43;;;6.22;;
3177;SDS011;38141;42.666;23.344;2023-06-05T13:49:07;7.80;;;7.00;;
3177;SDS011;38141;42.666;23.344;2023-06-05T13:51:35;8.48;;;6.63;;
3177;SDS011;38141;42.666;23.344;2023-06-05T13:54:03;10.18;;;6.68;;
3177;SDS011;38141;42.666;23.344;2023-06-05T13:56:31;9.57;;;7.07;;
3177;SDS011;38141;42.666;23.344;2023-06-05T13:58:58;10.45;;;6.95;;
3177;SDS011;38141;42.666;23.344;2023-06-05T14:01:25;7.13;;;6.00;;
3177;SDS011;38141;42.666;23.344;2023-06-05T14:03:53;7.05;;;6.38;;
3177;SDS011;38141;42.666;23.344;2023-06-05T14:06:21;7.25;;;6.38;;
3177;SDS011;38141;42.666;23.344;2023-06-05T14:08:48;6.55;;;5.88;;
3177;SDS011;38141;42.666;23.344;2023-06-05T14:11:15;8.77;;;6.78;;
3177;SDS011;38141;42.666;23.344;2023-06-05T14:13:44;9.10;;;6.70;;
3177;SDS011;38141;42.666;23.344;2023-06-05T14:16:10;9.18;;;6.85;;
3177;SDS011;38141;42.666;23.344;2023-06-05T14:18:38;8.52;;;6.75;;
3177;SDS011;38141;42.666;23.344;2023-06-05T14:21:07;9.95;;;6.65;;
3177;SDS011;38141;42.666;23.344;2023-06-05T14:23:34;8.05;;;6.55;;
3177;SDS011;38141;42.666;23.344;2023-06-05T14:26:01;10.15;;;6.95;;
3177;SDS011;38141;42.666;23.344;2023-06-05T14:28:28;15.20;;;6.45;;
3177;SDS011;38141;42.666;23.344;2023-06-05T14:30:56;10.05;;;7.40;;
3177;SDS011;38141;42.666;23.344;2023-06-05T14:33:23;11.25;;;6.40;;
3177;SDS011;38141;42.666;23.344;2023-06-05T14:35:49;7.30;;;6.50;;
3177;SDS011;38141;42.666;23.344;2023-06-05T14:38:17;6.80;;;6.07;;
3177;SDS011;38141;42.666;23.344;2023-06-05T14:40:43;9.13;;;7.20;;
3177;SDS011;38141;42.666;23.344;2023-06-05T14:43:11;10.20;;;7.47;;
3177;SDS011;38141;42.666;23.344;2023-06-05T14:45:38;8.70;;;7.80;;
3177;SDS011;38141;42.666;23.344;2023-06-05T14:48:06;8.87;;;7.37;;
3177;SDS011;38141;42.666;23.344;2023-06-05T14:50:35;9.55;;;7.50;;
3177;SDS011;38141;42.666;23.344;2023-06-05T14:53:02;7.72;;;6.82;;
3177;SDS011;38141;42.666;23.344;2023-06-05T14:55:29;12.73;;;7.75;;